Time;durP1;ratioP1;P1;durP2;ratioP2;P2;SDS_P1;SDS_P2;PMS_P1;PMS_P2;Temp;Humidity;BMP_temperature;BMP_pressure;BME280_temperature;BME280_humidity;BME280_pressure;Samples;Min_cycle;Max_cycle;Signal;HPM_P1;HPM_P2
2021/12/28 00:02:24;;;;;;;40.67;23.42;;;3.00;99.90;;;;;;4978085;28;20053;-94
2021/12/28 00:04:49;;;;;;;39.35;23.05;;;2.80;99.90;;;;;;4993127;28;20046;-92
2021/12/28 00:07:15;;;;;;;37.40;21.50;;;3.10;99.90;;;;;;4993787;28;20048;-95
2021/12/28 00:09:41;;;;;;;40.67;23.80;;;3.90;99.90;;;;;;4978242;28;20108;-94
2021/12/28 00:12:07;;;;;;;39.45;23.15;;;3.10;99.90;;;;;;4994108;28;20482;-95
2021/12/28 00:14:37;;;;;;;41.75;23.83;;;3.10;99.90;;;;;;4993953;28;20045;-95
2021/12/28 00:19:48;;;;;;;41.80;23.10;;;3.10;99.90;;;;;;4992722;28;20046;-94
2021/12/28 00:22:13;;;;;;;42.03;23.02;;;3.10;99.90;;;;;;4977721;28;20559;-94
2021/12/28 00:24:40;;;;;;;41.83;23.75;;;3.20;99.90;;;;;;4976959;28;20042;-96
2021/12/28 00:27:06;;;;;;;44.00;24.00;;;4.20;99.90;;;;;;4976923;28;20503;-95
2021/12/28 00:29:31;;;;;;;43.97;24.65;;;3.20;99.90;;;;;;4993494;28;20041;-95
2021/12/28 00:31:57;;;;;;;40.08;23.27;;;4.30;99.90;;;;;;4992351;28;20151;-95
2021/12/28 00:34:23;;;;;;;46.38;25.25;;;3.30;99.90;;;;;;4977129;28;20050;-94
2021/12/28 00:36:49;;;;;;;50.30;25.83;;;3.30;99.90;;;;;;4992883;28;20049;-95
2021/12/28 00:39:15;;;;;;;53.00;27.63;;;3.30;99.90;;;;;;4992904;28;20041;-95
2021/12/28 00:41:41;;;;;;;51.83;28.08;;;3.40;99.90;;;;;;4976773;28;20046;-95
2021/12/28 00:44:07;;;;;;;54.47;28.05;;;3.70;99.90;;;;;;4976839;28;20046;-94
2021/12/28 00:46:33;;;;;;;54.17;28.85;;;3.40;99.90;;;;;;4976129;28;20045;-95
2021/12/28 00:48:58;;;;;;;56.72;28.00;;;3.50;99.90;;;;;;4976570;28;20049;-95
2021/12/28 00:51:24;;;;;;;61.35;29.85;;;3.30;99.90;;;;;;4976852;28;20053;-93
2021/12/28 00:53:50;;;;;;;62.13;29.63;;;3.70;99.90;;;;;;4983550;28;20420;-94
2021/12/28 00:56:16;;;;;;;63.30;30.17;;;3.50;99.90;;;;;;4996139;28;20046;-94
2021/12/28 00:58:41;;;;;;;81.65;33.78;;;3.50;99.90;;;;;;4996384;28;20192;-92
2021/12/28 01:01:07;;;;;;;67.32;31.08;;;4.40;99.90;;;;;;4995686;28;20037;-94
2021/12/28 01:03:36;;;;;;;68.75;31.20;;;3.50;99.90;;;;;;4995856;28;20048;-93
2021/12/28 01:06:02;;;;;;;68.65;32.80;;;4.10;99.90;;;;;;5012616;28;20052;-94
2021/12/28 01:08:28;;;;;;;74.20;31.77;;;3.60;99.90;;;;;;5011174;28;20076;-95
2021/12/28 01:10:55;;;;;;;71.07;32.00;;;4.00;99.90;;;;;;4996043;28;20162;-94
2021/12/28 01:13:21;;;;;;;68.78;31.08;;;4.50;99.90;;;;;;5011904;28;20084;-95
2021/12/28 01:15:48;;;;;;;84.95;34.92;;;3.60;99.90;;;;;;4995008;28;20077;-94
2021/12/28 01:18:14;;;;;;;92.72;38.35;;;3.60;99.90;;;;;;4995776;28;20103;-95
2021/12/28 01:20:41;;;;;;;88.28;36.50;;;3.60;99.90;;;;;;5012652;28;20049;-94
2021/12/28 01:23:08;;;;;;;84.45;34.97;;;3.60;99.90;;;;;;5012009;28;20500;-95
2021/12/28 01:25:34;;;;;;;92.05;37.92;;;3.60;99.90;;;;;;4995707;28;20084;-95
2021/12/28 01:28:01;;;;;;;91.35;38.90;;;4.20;99.90;;;;;;5011885;28;20049;-95
2021/12/28 01:30:31;;;;;;;119.28;45.42;;;3.60;99.90;;;;;;4995635;28;20041;-95
2021/12/28 01:32:59;;;;;;;90.55;38.35;;;3.60;99.90;;;;;;5012019;28;20110;-94
2021/12/28 01:35:26;;;;;;;104.07;41.53;;;4.00;99.90;;;;;;4994995;28;20045;-94
2021/12/28 01:37:52;;;;;;;111.25;41.00;;;3.70;99.90;;;;;;5012545;28;20095;-94
2021/12/28 01:40:23;;;;;;;114.05;43.05;;;3.70;99.90;;;;;;4995681;28;20492;-94
2021/12/28 01:42:55;;;;;;;124.43;45.20;;;3.80;99.90;;;;;;5011623;28;20037;-94
2021/12/28 01:45:42;;;;;;;125.53;45.08;;;3.70;99.90;;;;;;5012067;28;20053;-94
2021/12/28 01:48:10;;;;;;;109.20;41.70;;;3.80;99.90;;;;;;4995461;28;20052;-96
2021/12/28 01:50:37;;;;;;;135.95;44.92;;;3.80;99.90;;;;;;4995901;28;20092;-96
2021/12/28 01:53:04;;;;;;;126.63;44.15;;;4.40;99.90;;;;;;4996003;28;20476;-95
2021/12/28 01:55:31;;;;;;;125.40;41.88;;;3.80;99.90;;;;;;4998920;28;20073;-94
2021/12/28 01:57:57;;;;;;;144.52;46.58;;;3.80;99.90;;;;;;4999045;28;20101;-93
2021/12/28 02:00:24;;;;;;;147.93;47.58;;;3.80;99.90;;;;;;4999393;28;20038;-94
2021/12/28 02:02:50;;;;;;;142.70;45.88;;;4.10;99.90;;;;;;4999351;28;20060;-92
2021/12/28 02:05:16;;;;;;;155.23;47.63;;;4.70;99.90;;;;;;4998731;28;20855;-94
2021/12/28 02:07:41;;;;;;;164.20;49.00;;;5.00;99.90;;;;;;4999641;28;20045;-95
2021/12/28 02:10:08;;;;;;;157.30;47.92;;;5.00;99.90;;;;;;4999525;28;20045;-95
2021/12/28 02:12:34;;;;;;;164.85;47.83;;;3.80;99.90;;;;;;4999010;28;20095;-94
2021/12/28 02:15:05;;;;;;;209.50;52.47;;;3.80;99.90;;;;;;4998741;28;20420;-93
2021/12/28 02:17:33;;;;;;;219.73;55.15;;;3.90;99.90;;;;;;4998457;28;20041;-94
2021/12/28 02:20:07;;;;;;;189.88;52.13;;;3.90;99.90;;;;;;4998686;28;20187;-95
2021/12/28 02:22:33;;;;;;;218.93;56.20;;;4.60;99.90;;;;;;4999552;28;20049;-95
2021/12/28 02:24:59;;;;;;;251.02;57.38;;;4.00;99.90;;;;;;4998560;28;20041;-94
2021/12/28 02:27:27;;;;;;;220.38;53.90;;;4.60;99.90;;;;;;4999047;28;20111;-94
2021/12/28 02:29:53;;;;;;;257.42;56.35;;;3.90;99.90;;;;;;4998622;28;20041;-95
2021/12/28 02:32:19;;;;;;;221.23;53.85;;;3.50;99.90;;;;;;4998348;28;20091;-94
2021/12/28 02:34:45;;;;;;;281.35;57.78;;;4.70;99.90;;;;;;4998655;28;20069;-94
2021/12/28 02:37:11;;;;;;;301.15;63.40;;;4.20;99.90;;;;;;4999101;28;20045;-94
2021/12/28 02:39:37;;;;;;;354.73;64.35;;;5.00;99.90;;;;;;4998276;28;20050;-94
2021/12/28 02:42:03;;;;;;;266.92;58.50;;;5.10;99.90;;;;;;4998415;28;20110;-94
2021/12/28 02:44:32;;;;;;;301.25;60.00;;;4.00;99.90;;;;;;4998908;28;20041;-93
2021/12/28 02:46:57;;;;;;;391.73;70.10;;;4.10;99.90;;;;;;4998032;28;20052;-93
2021/12/28 02:49:23;;;;;;;280.55;62.78;;;5.10;99.90;;;;;;4998186;28;20049;-93
2021/12/28 02:51:49;;;;;;;363.33;67.70;;;5.30;99.90;;;;;;4998732;28;20089;-96
2021/12/28 02:54:20;;;;;;;479.30;79.32;;;5.20;99.90;;;;;;4998073;28;20048;-93
2021/12/28 02:56:48;;;;;;;279.80;59.97;;;4.80;99.90;;;;;;4999479;28;20052;-93
2021/12/28 02:59:14;;;;;;;552.00;82.93;;;4.10;99.90;;;;;;4998455;28;20041;-95
2021/12/28 03:01:40;;;;;;;383.35;72.07;;;4.50;99.90;;;;;;4997589;28;20041;-95
2021/12/28 03:04:27;;;;;;;555.03;87.35;;;5.00;99.90;;;;;;4998023;28;20107;-94
2021/12/28 03:06:54;;;;;;;327.95;66.15;;;4.10;99.90;;;;;;4996100;28;20400;-94
2021/12/28 03:09:23;;;;;;;542.97;86.50;;;4.30;99.90;;;;;;4998187;28;20037;-94
2021/12/28 03:11:54;;;;;;;352.92;71.30;;;5.40;99.90;;;;;;4997952;28;20042;-94
2021/12/28 03:14:23;;;;;;;429.63;74.35;;;4.10;99.90;;;;;;5013745;28;20481;-93
2021/12/28 03:16:48;;;;;;;454.38;83.88;;;5.20;99.90;;;;;;5014159;28;20080;-94
2021/12/28 03:19:14;;;;;;;424.00;73.28;;;4.20;99.90;;;;;;4998143;28;20045;-95
2021/12/28 03:21:43;;;;;;;442.27;75.40;;;4.20;99.90;;;;;;4994635;28;20045;-96
2021/12/28 03:24:08;;;;;;;580.60;89.90;;;4.30;99.90;;;;;;4978822;28;20081;-94
2021/12/28 03:26:35;;;;;;;429.52;76.55;;;4.40;99.90;;;;;;4978465;28;20092;-96
2021/12/28 03:29:01;;;;;;;496.60;82.50;;;4.60;99.90;;;;;;4977814;28;20045;-96
2021/12/28 03:31:29;;;;;;;550.22;88.72;;;4.50;99.90;;;;;;4978227;28;20076;-94
2021/12/28 03:33:56;;;;;;;808.38;103.35;;;4.40;99.90;;;;;;4977965;28;20412;-95
2021/12/28 03:36:25;;;;;;;490.60;79.13;;;4.30;99.90;;;;;;4978244;28;20049;-94
2021/12/28 03:38:51;;;;;;;384.95;70.50;;;4.60;99.90;;;;;;4978224;28;20045;-94
2021/12/28 03:41:22;;;;;;;647.58;91.97;;;5.20;99.90;;;;;;4994432;28;20374;-95
2021/12/28 03:43:50;;;;;;;795.80;101.88;;;4.30;99.90;;;;;;4978132;28;20034;-95
2021/12/28 03:46:17;;;;;;;740.50;100.68;;;5.00;99.90;;;;;;4978208;28;20046;-95
2021/12/28 03:48:44;;;;;;;607.83;87.50;;;4.30;99.90;;;;;;4977221;28;20038;-96
2021/12/28 03:51:10;;;;;;;591.60;81.57;;;4.30;99.90;;;;;;4994290;28;20054;-95
2021/12/28 03:53:37;;;;;;;754.53;103.22;;;4.30;99.90;;;;;;4993937;28;20068;-95
2021/12/28 03:56:05;;;;;;;619.28;84.57;;;4.30;99.90;;;;;;4977896;28;20037;-95
2021/12/28 03:58:31;;;;;;;333.23;67.15;;;4.30;99.90;;;;;;4994443;28;20053;-94
2021/12/28 04:00:57;;;;;;;598.00;85.43;;;4.30;99.90;;;;;;4977868;28;20512;-95
2021/12/28 04:03:23;;;;;;;528.10;79.97;;;5.10;99.90;;;;;;4977410;28;20111;-94
2021/12/28 04:05:48;;;;;;;693.67;94.38;;;4.30;99.90;;;;;;4978075;28;20045;-94
2021/12/28 04:08:22;;;;;;;561.42;84.95;;;4.30;99.90;;;;;;4994212;28;20042;-93
2021/12/28 04:10:54;;;;;;;462.25;78.25;;;5.20;99.90;;;;;;4993567;28;20485;-94
2021/12/28 04:13:24;;;;;;;626.45;88.97;;;4.40;99.90;;;;;;4993988;28;20053;-95
2021/12/28 04:15:53;;;;;;;1062.35;119.43;;;5.20;99.90;;;;;;4977436;28;20040;-94
2021/12/28 04:18:19;;;;;;;637.95;89.18;;;4.40;99.90;;;;;;4976852;28;20081;-95
2021/12/28 04:20:45;;;;;;;664.70;90.38;;;4.50;99.90;;;;;;4977819;28;20042;-95
2021/12/28 04:23:14;;;;;;;799.15;95.57;;;4.40;99.90;;;;;;4978182;28;20060;-96
2021/12/28 04:25:40;;;;;;;974.85;109.72;;;4.40;99.90;;;;;;4977144;28;20493;-95
2021/12/28 04:28:05;;;;;;;816.70;91.03;;;5.30;99.90;;;;;;4993783;28;20048;-93
2021/12/28 04:30:31;;;;;;;791.83;89.70;;;5.50;99.90;;;;;;4993287;28;20393;-95
2021/12/28 04:32:57;;;;;;;720.97;83.43;;;4.30;99.90;;;;;;4976215;28;20048;-94
2021/12/28 04:35:23;;;;;;;864.42;88.85;;;4.30;99.90;;;;;;4977266;28;20045;-95
2021/12/28 04:37:48;;;;;;;581.80;74.45;;;4.80;99.90;;;;;;4976741;28;20046;-94
2021/12/28 04:40:14;;;;;;;728.22;84.32;;;5.20;99.90;;;;;;4976982;28;20046;-94
2021/12/28 04:42:41;;;;;;;788.67;90.72;;;4.20;99.90;;;;;;4977162;28;20060;-93
2021/12/28 04:45:09;;;;;;;641.03;85.63;;;4.50;99.90;;;;;;4976597;28;20041;-95
2021/12/28 04:47:36;;;;;;;804.40;90.93;;;4.20;99.90;;;;;;4976812;28;20045;-94
2021/12/28 04:50:05;;;;;;;828.13;91.28;;;4.20;99.90;;;;;;4976876;28;20046;-94
2021/12/28 04:52:35;;;;;;;979.58;97.05;;;4.20;99.90;;;;;;4992723;28;20059;-95
2021/12/28 04:55:01;;;;;;;807.38;92.95;;;4.30;99.90;;;;;;4993192;28;20046;-94
2021/12/28 04:57:27;;;;;;;740.25;87.15;;;4.70;99.90;;;;;;4976654;28;20052;-95
2021/12/28 04:59:52;;;;;;;1480.53;132.32;;;5.20;99.90;;;;;;4992240;28;20038;-95
2021/12/28 05:02:18;;;;;;;732.35;94.90;;;4.30;99.90;;;;;;5010201;28;20080;-95
2021/12/28 05:04:44;;;;;;;1191.70;115.78;;;4.40;99.90;;;;;;4995521;28;20075;-96
2021/12/28 05:07:10;;;;;;;560.70;80.50;;;4.40;99.90;;;;;;4995801;28;20054;-95
2021/12/28 05:09:36;;;;;;;758.13;89.90;;;4.40;99.90;;;;;;4996514;28;20045;-94
2021/12/28 05:12:02;;;;;;;876.08;97.65;;;5.30;99.90;;;;;;4995846;28;20152;-95
2021/12/28 05:14:28;;;;;;;1078.60;109.30;;;4.40;99.90;;;;;;4995453;28;20045;-93
2021/12/28 05:16:54;;;;;;;992.05;103.28;;;4.40;99.90;;;;;;4995740;28;20049;-95
2021/12/28 05:19:21;;;;;;;1022.35;105.97;;;4.50;99.90;;;;;;5012432;28;20038;-96
2021/12/28 05:21:47;;;;;;;1209.97;114.97;;;4.50;99.90;;;;;;4995495;28;20045;-94
2021/12/28 05:24:13;;;;;;;1195.55;112.47;;;5.40;99.90;;;;;;4996005;28;20394;-95
2021/12/28 05:26:38;;;;;;;1008.97;101.47;;;4.50;99.90;;;;;;4996143;28;20382;-96
2021/12/28 05:29:04;;;;;;;751.13;88.43;;;4.50;99.90;;;;;;4994744;28;20053;-96
2021/12/28 05:31:30;;;;;;;1026.35;101.32;;;4.50;99.90;;;;;;5012783;28;20052;-95
2021/12/28 05:33:57;;;;;;;818.22;93.57;;;4.90;99.90;;;;;;4995611;28;20045;-96
2021/12/28 05:36:23;;;;;;;823.65;92.45;;;5.00;99.90;;;;;;4995019;28;20509;-95
2021/12/28 05:38:49;;;;;;;730.72;88.07;;;4.60;99.90;;;;;;5011939;28;20560;-96
2021/12/28 05:41:15;;;;;;;749.42;87.25;;;5.50;99.90;;;;;;4995024;28;20085;-96
2021/12/28 05:43:44;;;;;;;598.45;77.82;;;4.70;99.90;;;;;;5012393;28;20045;-96
2021/12/28 05:46:15;;;;;;;440.20;65.60;;;5.30;99.90;;;;;;4995696;28;20060;-95
2021/12/28 05:48:41;;;;;;;504.20;70.55;;;4.10;99.90;;;;;;4994733;28;20049;-95
2021/12/28 05:51:07;;;;;;;621.63;76.03;;;5.50;99.90;;;;;;5011731;28;20050;-95
2021/12/28 05:53:33;;;;;;;465.77;67.68;;;5.40;99.90;;;;;;4995593;28;20085;-95
2021/12/28 05:55:59;;;;;;;530.97;73.28;;;4.60;99.90;;;;;;4994991;28;20052;-95
2021/12/28 05:58:24;;;;;;;432.88;64.00;;;4.60;99.90;;;;;;4995447;28;20053;-94
2021/12/28 06:00:50;;;;;;;333.45;59.38;;;4.60;99.90;;;;;;4996038;28;20479;-96
2021/12/28 06:03:16;;;;;;;322.65;58.35;;;5.30;99.90;;;;;;4994600;28;20056;-96
2021/12/28 06:05:41;;;;;;;315.88;58.78;;;4.60;99.90;;;;;;4995383;28;20133;-96
2021/12/28 06:08:07;;;;;;;296.38;56.10;;;4.60;99.90;;;;;;4998424;28;20055;-96
2021/12/28 06:10:33;;;;;;;277.30;55.42;;;4.60;99.90;;;;;;4995309;28;20052;-96
2021/12/28 06:12:58;;;;;;;280.77;54.60;;;4.60;99.90;;;;;;5012162;28;20041;-96
2021/12/28 06:15:24;;;;;;;271.75;54.65;;;4.60;99.90;;;;;;4995525;28;20046;-96
2021/12/28 06:17:50;;;;;;;279.17;53.38;;;5.40;99.90;;;;;;5015395;28;20045;-96
2021/12/28 06:20:16;;;;;;;245.38;54.78;;;5.30;99.90;;;;;;4995933;28;20162;-96
2021/12/28 06:22:42;;;;;;;231.30;50.88;;;5.20;99.90;;;;;;5011508;28;20049;-96
2021/12/28 06:25:07;;;;;;;298.73;54.88;;;4.90;99.90;;;;;;5011796;28;20500;-96
2021/12/28 06:27:35;;;;;;;286.35;53.92;;;4.70;99.90;;;;;;5011926;28;20050;-89
2021/12/28 06:30:00;;;;;;;261.77;51.03;;;5.60;99.90;;;;;;5014270;28;20045;-91
2021/12/28 06:32:26;;;;;;;271.98;51.25;;;4.60;99.90;;;;;;4997265;28;20494;-89
2021/12/28 06:34:55;;;;;;;239.18;49.80;;;4.60;99.90;;;;;;4996106;28;20548;-94
2021/12/28 06:37:20;;;;;;;250.43;50.33;;;4.60;99.90;;;;;;5011673;28;20260;-95
2021/12/28 06:39:46;;;;;;;222.98;49.13;;;4.60;99.90;;;;;;4995748;28;20111;-96
2021/12/28 06:42:12;;;;;;;204.98;46.67;;;4.60;99.90;;;;;;5007452;28;20065;-96
2021/12/28 06:44:40;;;;;;;231.15;50.83;;;5.50;99.90;;;;;;5017246;28;20026;-96
2021/12/28 06:47:05;;;;;;;206.95;49.67;;;4.60;99.90;;;;;;4994071;28;20041;-96
2021/12/28 06:49:31;;;;;;;236.18;49.03;;;5.60;99.90;;;;;;4990292;28;20041;-96
2021/12/28 06:51:57;;;;;;;247.77;49.60;;;4.70;99.90;;;;;;4988758;28;20064;-96
2021/12/28 06:54:23;;;;;;;193.65;46.30;;;5.10;99.90;;;;;;4996356;28;20052;-96
2021/12/28 06:56:48;;;;;;;217.60;47.15;;;4.70;99.90;;;;;;4999122;28;20070;-96
2021/12/28 06:59:14;;;;;;;224.63;46.13;;;5.70;99.90;;;;;;4998314;28;20552;-96
2021/12/28 07:01:40;;;;;;;194.80;45.65;;;4.90;99.90;;;;;;4998180;28;20095;-96
2021/12/28 07:04:05;;;;;;;201.18;45.42;;;5.10;99.90;;;;;;4998114;28;20041;-94
2021/12/28 07:06:31;;;;;;;213.15;45.05;;;4.60;99.90;;;;;;4998710;28;20045;-96
2021/12/28 07:09:01;;;;;;;167.10;41.05;;;5.00;99.90;;;;;;5004000;28;20045;-96
2021/12/28 07:11:26;;;;;;;207.18;44.35;;;4.60;99.90;;;;;;5005335;28;20119;-96
2021/12/28 07:13:52;;;;;;;190.95;43.78;;;4.60;99.90;;;;;;5007389;28;20073;-93
2021/12/28 07:16:19;;;;;;;213.30;44.33;;;4.90;99.90;;;;;;5003273;28;20049;-96
2021/12/28 07:18:45;;;;;;;161.48;42.92;;;4.60;99.90;;;;;;4990421;28;20045;-96
2021/12/28 07:21:11;;;;;;;222.63;46.40;;;4.60;99.90;;;;;;5012841;23;20089;-93
2021/12/28 07:24:46;;;;;;;186.10;41.63;;;4.50;99.90;;;;;;4978284;28;20046;-96
2021/12/28 07:26:58;;;;;;;184.02;42.15;;;4.50;99.90;;;;;;4985183;28;20058;-96
2021/12/28 07:29:54;;;;;;;175.90;41.45;;;4.50;99.90;;;;;;4978795;28;20049;-95
2021/12/28 07:32:35;;;;;;;180.10;41.83;;;4.50;99.90;;;;;;4977667;28;20046;-96
2021/12/28 07:35:19;;;;;;;;;;;;;;;;;;;;;
2021/12/28 07:38:11;;;;;;;165.43;39.63;;;4.40;99.90;;;;;;4993278;28;20054;-96
2021/12/28 07:40:45;;;;;;;158.10;39.25;;;4.80;99.90;;;;;;4971321;28;20541;-96
2021/12/28 07:43:49;;;;;;;;;;;;;;;;;;;;;
2021/12/28 07:47:09;;;;;;;150.77;38.20;;;4.40;99.90;;;;;;4992211;28;20046;-96
2021/12/28 07:50:06;;;;;;;131.18;37.47;;;4.40;99.90;;;;;;4940287;28;20262;-96
2021/12/28 07:57:09;;;;;;;;;;;;;;;;;;;;;
2021/12/28 08:00:08;;;;;;;120.07;36.50;;;4.60;99.90;;;;;;4925943;28;20065;-96
2021/12/28 08:02:43;;;;;;;128.85;37.10;;;4.60;99.90;;;;;;4967811;28;20478;-96
2021/12/28 08:05:51;;;;;;;119.47;33.97;;;4.60;99.90;;;;;;4968454;28;20046;-96
2021/12/28 08:09:18;;;;;;;97.50;31.38;;;4.70;99.90;;;;;;4975759;28;20062;-95
2021/12/28 08:12:14;;;;;;;90.72;31.52;;;4.60;99.90;;;;;;4935530;28;20134;-96
2021/12/28 08:14:56;;;;;;;86.38;29.45;;;4.70;99.90;;;;;;4955904;28;20047;-96
2021/12/28 08:18:03;;;;;;;85.60;29.95;;;4.60;99.90;;;;;;4964506;28;20055;-95
2021/12/28 08:20:59;;;;;;;83.97;27.63;;;4.80;99.90;;;;;;4900138;28;20546;-95
2021/12/28 08:23:27;;;;;;;84.78;28.02;;;4.20;99.90;;;;;;4958801;28;20057;-95
2021/12/28 08:26:05;;;;;;;79.95;27.02;;;4.60;99.90;;;;;;4965614;28;20058;-96
2021/12/28 08:28:36;;;;;;;70.10;26.27;;;4.60;99.90;;;;;;4977671;28;20041;-96
2021/12/28 08:31:03;;;;;;;71.75;26.42;;;4.60;99.90;;;;;;4968628;28;20046;-96
2021/12/28 08:33:40;;;;;;;63.83;24.23;;;5.00;99.90;;;;;;4959275;28;20042;-96
2021/12/28 08:37:07;;;;;;;71.13;23.90;;;4.90;99.90;;;;;;4961247;28;20042;-96
2021/12/28 08:40:23;;;;;;;;;;;;;;;;;;;;;
2021/12/28 08:44:03;;;;;;;58.00;23.45;;;5.10;99.90;;;;;;4937206;28;20054;-96
2021/12/28 08:46:30;;;;;;;62.80;22.05;;;4.10;99.90;;;;;;4960021;28;20050;-90
2021/12/28 08:54:01;;;;;;;66.45;21.70;;;4.70;99.90;;;;;;4974770;28;20105;-96
2021/12/28 08:56:39;;;;;;;53.83;19.63;;;4.70;99.90;;;;;;4920019;28;20054;-95
2021/12/28 08:59:13;;;;;;;59.20;20.88;;;4.60;99.90;;;;;;4971801;28;20181;-96
2021/12/28 09:01:39;;;;;;;60.90;20.85;;;4.70;99.90;;;;;;4966409;28;20508;-96
2021/12/28 09:04:05;;;;;;;72.20;21.02;;;4.60;99.90;;;;;;4962069;28;20050;-96
2021/12/28 09:06:40;;;;;;;68.20;21.15;;;5.80;99.90;;;;;;4965808;28;20046;-95
2021/12/28 09:09:08;;;;;;;56.60;20.25;;;4.70;99.90;;;;;;4959183;28;20052;-96
2021/12/28 09:11:49;;;;;;;69.15;20.95;;;4.70;99.90;;;;;;4959789;28;20474;-96
2021/12/28 09:14:39;;;;;;;61.00;18.90;;;5.10;99.90;;;;;;4970955;28;20069;-96
2021/12/28 09:17:15;;;;;;;50.65;19.35;;;4.90;99.90;;;;;;4979398;28;20609;-96
2021/12/28 09:19:47;;;;;;;48.40;17.83;;;5.00;99.90;;;;;;4959605;28;20035;-96
2021/12/28 09:22:19;;;;;;;67.20;18.88;;;4.80;99.90;;;;;;4957167;28;20059;-96
2021/12/28 09:25:07;;;;;;;54.10;17.88;;;5.50;99.90;;;;;;4956171;28;20506;-96
2021/12/28 09:27:34;;;;;;;54.88;18.02;;;5.20;99.90;;;;;;4949607;28;20059;-96
2021/12/28 09:29:59;;;;;;;54.22;17.88;;;5.20;99.90;;;;;;4955509;28;20405;-96
2021/12/28 09:32:56;;;;;;;45.90;16.85;;;5.50;99.90;;;;;;4957739;28;20387;-96
2021/12/28 09:35:25;;;;;;;46.60;16.95;;;5.30;99.90;;;;;;4982376;23;20049;-93
2021/12/28 09:37:51;;;;;;;44.92;16.30;;;5.40;99.90;;;;;;4976564;28;20050;-93
2021/12/28 09:40:16;;;;;;;44.08;14.95;;;5.40;99.90;;;;;;4992910;28;20129;-91
2021/12/28 09:42:43;;;;;;;48.58;15.65;;;5.40;99.90;;;;;;4975550;28;20045;-95
2021/12/28 09:45:11;;;;;;;50.92;15.93;;;6.40;99.90;;;;;;4976319;28;20034;-91
2021/12/28 09:47:36;;;;;;;43.20;15.30;;;5.40;99.90;;;;;;4975111;28;20080;-92
2021/12/28 09:50:05;;;;;;;47.53;15.50;;;5.40;99.90;;;;;;4992584;28;20034;-93
2021/12/28 09:52:31;;;;;;;51.75;16.77;;;5.40;99.90;;;;;;4976143;28;20056;-93
2021/12/28 09:54:57;;;;;;;47.40;15.18;;;5.50;99.90;;;;;;4976041;28;20564;-93
2021/12/28 09:57:23;;;;;;;37.90;15.77;;;6.50;99.90;;;;;;4992472;28;20133;-93
2021/12/28 09:59:49;;;;;;;46.03;14.55;;;6.20;99.90;;;;;;4976246;28;20092;-93
2021/12/28 10:02:16;;;;;;;43.92;15.13;;;5.60;99.90;;;;;;4991898;28;20049;-94
2021/12/28 10:05:04;;;;;;;55.97;15.60;;;5.60;99.90;;;;;;4992160;28;20045;-95
2021/12/28 10:07:31;;;;;;;52.63;15.63;;;5.60;99.90;;;;;;4992617;28;20115;-94
2021/12/28 10:09:58;;;;;;;39.67;14.80;;;5.60;99.90;;;;;;4975998;28;20038;-93
2021/12/28 10:12:35;;;;;;;53.20;14.48;;;5.70;99.90;;;;;;4976172;28;20050;-94
2021/12/28 10:15:05;;;;;;;43.45;14.25;;;5.70;99.90;;;;;;4976951;28;20054;-92
2021/12/28 10:17:33;;;;;;;47.20;14.27;;;5.70;99.90;;;;;;4995704;28;20577;-93
2021/12/28 10:20:02;;;;;;;43.75;13.48;;;5.70;99.90;;;;;;4979643;28;20092;-95
2021/12/28 10:22:30;;;;;;;37.55;13.68;;;5.80;99.90;;;;;;4979934;28;20065;-92
2021/12/28 10:25:08;;;;;;;45.97;13.10;;;5.80;99.90;;;;;;4981589;28;20053;-92
2021/12/28 10:27:37;;;;;;;35.97;11.50;;;5.80;99.90;;;;;;4980357;28;20100;-94
2021/12/28 10:30:21;;;;;;;31.27;11.48;;;5.80;99.90;;;;;;4978956;28;20052;-95
2021/12/28 10:32:50;;;;;;;40.30;12.38;;;5.80;99.90;;;;;;4979492;28;20125;-94
2021/12/28 10:35:21;;;;;;;41.50;11.60;;;6.20;99.90;;;;;;4979034;28;20386;-94
2021/12/28 10:37:50;;;;;;;35.55;11.88;;;5.90;99.90;;;;;;4978818;28;20053;-92
2021/12/28 10:40:25;;;;;;;33.58;11.15;;;5.90;99.90;;;;;;4970947;28;20042;-95
2021/12/28 10:42:55;;;;;;;37.38;11.43;;;5.90;99.90;;;;;;4959973;28;20057;-95
2021/12/28 10:45:37;;;;;;;35.92;11.55;;;5.90;99.90;;;;;;4960041;28;20060;-95
2021/12/28 10:48:07;;;;;;;32.08;11.13;;;5.90;99.90;;;;;;4959860;28;20042;-93
2021/12/28 10:50:38;;;;;;;40.28;12.18;;;7.10;99.90;;;;;;4959351;28;20042;-92
2021/12/28 10:53:12;;;;;;;40.67;11.23;;;6.00;99.90;;;;;;4959551;28;20100;-92
2021/12/28 10:55:41;;;;;;;42.22;11.63;;;6.00;99.90;;;;;;4959469;28;20053;-92
2021/12/28 10:58:07;;;;;;;35.25;10.85;;;6.00;99.90;;;;;;4959230;28;20042;-93
2021/12/28 11:00:42;;;;;;;41.80;11.95;;;6.00;99.90;;;;;;4959224;28;20042;-93
2021/12/28 11:03:14;;;;;;;40.58;11.73;;;5.90;99.90;;;;;;4959123;28;20431;-92
2021/12/28 11:05:42;;;;;;;45.63;12.63;;;6.00;99.90;;;;;;4958792;28;20108;-92
2021/12/28 11:08:07;;;;;;;45.65;13.90;;;6.60;99.90;;;;;;4963619;28;20042;-94
2021/12/28 11:10:35;;;;;;;45.97;12.57;;;6.40;99.90;;;;;;4961351;28;20125;-96
2021/12/28 11:13:01;;;;;;;42.75;12.27;;;6.00;99.90;;;;;;4979052;28;20077;-92
2021/12/28 11:15:27;;;;;;;44.03;13.35;;;6.00;99.90;;;;;;4978505;28;20477;-94
2021/12/28 11:17:53;;;;;;;45.90;13.35;;;6.00;99.90;;;;;;4978363;28;20045;-94
2021/12/28 11:20:30;;;;;;;41.20;13.55;;;7.00;99.90;;;;;;4993934;28;20101;-94
2021/12/28 11:23:14;;;;;;;49.08;13.20;;;6.10;99.90;;;;;;4977859;28;20045;-90
2021/12/28 11:25:40;;;;;;;41.72;13.95;;;6.20;99.90;;;;;;4977631;28;20046;-90
2021/12/28 11:28:16;;;;;;;42.42;13.45;;;6.20;99.90;;;;;;4977061;28;20406;-90
2021/12/28 11:31:06;;;;;;;40.42;13.82;;;6.20;99.90;;;;;;4977250;28;20038;-88
2021/12/28 11:33:44;;;;;;;38.55;13.73;;;6.20;99.90;;;;;;4976580;28;20046;-87
2021/12/28 11:36:11;;;;;;;42.40;12.98;;;6.20;99.90;;;;;;4976898;28;20054;-88
2021/12/28 11:38:37;;;;;;;41.08;13.75;;;6.30;99.90;;;;;;4977316;28;20046;-89
2021/12/28 11:41:05;;;;;;;38.03;14.20;;;6.30;99.90;;;;;;4994330;28;20497;-93
2021/12/28 11:43:34;;;;;;;41.08;14.02;;;6.30;99.90;;;;;;4977847;28;20515;-94
2021/12/28 11:46:00;;;;;;;40.25;14.70;;;6.30;99.90;;;;;;4977417;28;20046;-93
2021/12/28 11:48:26;;;;;;;45.33;14.57;;;6.30;99.90;;;;;;4978886;28;20064;-94
2021/12/28 11:50:53;;;;;;;44.47;17.73;;;6.30;99.90;;;;;;4977335;28;20053;-94
2021/12/28 11:53:20;;;;;;;76.00;34.72;;;6.40;99.90;;;;;;4977209;28;20046;-92
2021/12/28 11:55:46;;;;;;;52.67;22.35;;;6.30;99.90;;;;;;4993438;28;20120;-94
2021/12/28 11:58:12;;;;;;;46.30;16.30;;;6.40;99.90;;;;;;4994382;28;20420;-95
2021/12/28 12:00:43;;;;;;;49.10;17.33;;;6.40;99.90;;;;;;4983491;28;20076;-96
2021/12/28 12:03:33;;;;;;;49.63;16.30;;;6.40;99.90;;;;;;5196618;22;20058;-96
2021/12/28 12:05:59;;;;;;;45.05;14.88;;;5.60;99.90;;;;;;5014089;23;20462;-96
2021/12/28 12:08:25;;;;;;;53.10;18.65;;;6.40;99.90;;;;;;5020639;28;20052;-96
2021/12/28 12:11:02;;;;;;;44.65;15.48;;;6.40;99.90;;;;;;5020754;28;20065;-96
2021/12/28 12:13:49;;;;;;;59.88;34.83;;;7.80;99.90;;;;;;5015105;28;20053;-96
2021/12/28 12:16:16;;;;;;;51.97;20.50;;;6.50;99.90;;;;;;5011338;28;20393;-96
2021/12/28 12:18:47;;;;;;;36.65;16.48;;;6.90;99.90;;;;;;4996683;28;20037;-92
2021/12/28 12:21:18;;;;;;;39.60;16.60;;;6.50;99.90;;;;;;4998609;28;20131;-96
2021/12/28 12:23:46;;;;;;;48.97;15.52;;;6.50;99.90;;;;;;4998894;28;20406;-96
2021/12/28 12:26:17;;;;;;;36.45;14.52;;;6.50;99.90;;;;;;5000634;28;20192;-96
2021/12/28 12:28:47;;;;;;;38.38;16.02;;;6.60;99.90;;;;;;4997098;28;20200;-90
2021/12/28 12:31:22;;;;;;;54.58;24.17;;;7.60;99.90;;;;;;4997353;28;20511;-91
2021/12/28 12:33:48;;;;;;;49.58;18.98;;;6.60;99.90;;;;;;5012855;28;20427;-93
2021/12/28 12:36:22;;;;;;;53.10;15.98;;;6.50;99.90;;;;;;5015140;28;20045;-94
2021/12/28 12:38:49;;;;;;;39.55;16.77;;;6.70;99.90;;;;;;4997467;28;20139;-95
2021/12/28 12:41:19;;;;;;;47.33;17.35;;;6.60;99.90;;;;;;4977222;28;20045;-93
2021/12/28 12:43:51;;;;;;;35.08;16.15;;;6.80;99.90;;;;;;4992914;28;20493;-93
2021/12/28 12:46:22;;;;;;;36.20;15.63;;;6.60;99.90;;;;;;4992956;28;20045;-93
2021/12/28 12:48:52;;;;;;;33.03;15.55;;;6.70;99.90;;;;;;4976946;28;20056;-94
2021/12/28 12:51:19;;;;;;;36.78;16.20;;;7.60;99.90;;;;;;4986663;28;20034;-96
2021/12/28 12:58:01;;;;;;;;;;;;;;;;;;;;;
2021/12/28 13:01:19;;;;;;;32.78;15.20;;;6.70;99.90;;;;;;4915880;29;20089;-96
2021/12/28 13:04:08;;;;;;;;;;;;;;;;;;;;;
2021/12/28 13:06:40;;;;;;;41.30;16.70;;;6.70;99.90;;;;;;4915284;23;20112;-96
2021/12/28 13:09:10;;;;;;;39.20;16.73;;;6.80;99.90;;;;;;4995504;28;20053;-96
2021/12/28 13:11:38;;;;;;;39.97;17.08;;;6.80;99.90;;;;;;4988631;28;20053;-96
2021/12/28 13:14:17;;;;;;;46.30;17.95;;;6.80;99.90;;;;;;5003469;28;20045;-96